createdAt,value
2018-07-30T00:01:57.154Z,21.80
2018-07-30T00:04:25.525Z,21.70
2018-07-30T00:06:53.843Z,21.70
2018-07-30T00:09:22.044Z,21.60
2018-07-30T00:11:50.197Z,21.60
2018-07-30T00:14:18.423Z,21.50
2018-07-30T00:16:46.554Z,21.50
2018-07-30T00:19:14.804Z,21.40
2018-07-30T00:21:43.142Z,21.50
2018-07-30T00:24:11.343Z,21.50
2018-07-30T00:26:39.525Z,21.50
2018-07-30T00:29:08.777Z,21.40
2018-07-30T00:31:37.288Z,21.40
2018-07-30T00:34:05.709Z,21.50
2018-07-30T00:36:33.914Z,21.50
2018-07-30T00:39:02.090Z,21.60
2018-07-30T00:41:30.333Z,21.50
2018-07-30T00:46:26.521Z,21.60
2018-07-30T00:48:55.261Z,21.60
2018-07-30T00:51:23.505Z,21.60
2018-07-30T00:53:51.701Z,21.60
2018-07-30T00:56:19.850Z,21.50
2018-07-30T00:58:48.056Z,21.40
2018-07-30T01:01:16.382Z,21.30
2018-07-30T01:03:44.575Z,21.30
2018-07-30T01:06:12.822Z,21.30
2018-07-30T01:08:41.123Z,21.30
2018-07-30T01:11:09.394Z,21.30
2018-07-30T01:13:37.576Z,21.40
2018-07-30T01:16:05.901Z,21.40
2018-07-30T01:18:34.063Z,21.40
2018-07-30T01:21:02.342Z,21.40
2018-07-30T01:23:30.470Z,21.30
2018-07-30T01:26:03.085Z,21.30
2018-07-30T01:28:31.325Z,21.30
2018-07-30T01:30:59.473Z,21.30
2018-07-30T01:33:27.685Z,21.30
2018-07-30T01:35:55.800Z,21.20
2018-07-30T01:38:24.143Z,21.20
2018-07-30T01:40:52.291Z,21.20
2018-07-30T01:43:20.461Z,21.20
2018-07-30T01:45:48.658Z,21.20
2018-07-30T01:48:16.900Z,21.20
2018-07-30T01:50:45.074Z,21.20
2018-07-30T01:53:13.394Z,21.20
2018-07-30T01:55:41.575Z,21.20
2018-07-30T01:58:09.769Z,21.10
2018-07-30T02:00:38.015Z,21.10
2018-07-30T02:03:06.267Z,21.00
2018-07-30T02:05:34.382Z,21.00
2018-07-30T02:08:02.550Z,20.90
2018-07-30T02:10:30.773Z,20.80
2018-07-30T02:12:58.967Z,20.80
2018-07-30T02:15:27.215Z,20.80
2018-07-30T02:17:55.408Z,20.80
2018-07-30T02:20:23.669Z,20.80
2018-07-30T02:22:52.011Z,20.70
2018-07-30T02:25:20.192Z,20.70
2018-07-30T02:27:48.491Z,20.70
2018-07-30T02:30:16.715Z,20.70
2018-07-30T02:32:44.951Z,20.60
2018-07-30T02:35:13.141Z,20.60
2018-07-30T02:37:41.436Z,20.50
2018-07-30T02:40:09.725Z,20.40
2018-07-30T02:42:38.089Z,20.40
2018-07-30T02:45:06.744Z,20.40
2018-07-30T02:47:34.927Z,20.50
2018-07-30T02:50:03.329Z,20.50
2018-07-30T02:52:31.593Z,20.40
2018-07-30T02:54:59.775Z,20.30
2018-07-30T02:57:28.001Z,20.30
2018-07-30T02:59:56.127Z,20.30
2018-07-30T03:02:24.321Z,20.20
2018-07-30T03:04:52.506Z,20.20
2018-07-30T03:07:20.617Z,20.20
2018-07-30T03:09:48.843Z,20.10
2018-07-30T03:12:17.639Z,20.20
2018-07-30T03:14:45.891Z,20.20
2018-07-30T03:17:14.053Z,20.20
2018-07-30T03:19:42.203Z,20.10
2018-07-30T03:22:10.419Z,20.10
2018-07-30T03:24:38.594Z,20.00
2018-07-30T03:27:06.778Z,19.90
2018-07-30T03:29:34.955Z,19.90
2018-07-30T03:32:03.149Z,19.90
2018-07-30T03:34:31.277Z,19.90
2018-07-30T03:36:59.495Z,19.80
2018-07-30T03:39:27.728Z,19.80
2018-07-30T03:41:55.993Z,19.90
2018-07-30T03:44:24.170Z,19.80
2018-07-30T03:46:52.349Z,19.80
2018-07-30T03:49:20.556Z,19.80
2018-07-30T03:51:48.783Z,19.80
2018-07-30T03:54:16.933Z,19.80
2018-07-30T03:56:45.160Z,19.70
2018-07-30T03:59:13.360Z,19.80
2018-07-30T04:01:41.540Z,19.80
2018-07-30T04:04:09.806Z,19.80
2018-07-30T04:06:38.029Z,19.90
2018-07-30T04:09:07.121Z,19.90
2018-07-30T04:11:35.289Z,20.00
2018-07-30T04:14:03.545Z,20.00
2018-07-30T04:16:36.168Z,20.10
2018-07-30T04:19:04.372Z,20.10
2018-07-30T04:21:32.535Z,20.20
2018-07-30T04:24:00.728Z,20.20
2018-07-30T04:26:28.820Z,20.20
2018-07-30T04:28:56.982Z,20.20
2018-07-30T04:31:25.161Z,20.20
2018-07-30T04:33:54.283Z,20.30
2018-07-30T04:36:22.449Z,20.40
2018-07-30T04:38:50.625Z,20.50
2018-07-30T04:41:18.830Z,20.60
2018-07-30T04:43:47.054Z,20.70
2018-07-30T04:46:15.198Z,20.70
2018-07-30T04:48:44.018Z,20.80
2018-07-30T04:51:12.211Z,20.90
2018-07-30T04:53:41.001Z,20.90
2018-07-30T04:56:09.189Z,21.00
2018-07-30T04:58:37.359Z,21.10
2018-07-30T05:01:05.638Z,21.20
2018-07-30T05:03:34.381Z,21.30
2018-07-30T05:06:02.599Z,21.40
2018-07-30T05:08:30.782Z,21.50
2018-07-30T05:10:59.005Z,21.50
2018-07-30T05:13:27.219Z,21.70
2018-07-30T05:15:55.768Z,21.70
2018-07-30T05:18:23.950Z,21.80
2018-07-30T05:20:52.155Z,21.80
2018-07-30T05:25:48.246Z,22.10
2018-07-30T05:28:16.439Z,22.10
2018-07-30T05:30:45.565Z,22.20
2018-07-30T05:35:41.714Z,22.40
2018-07-30T05:38:09.885Z,22.50
2018-07-30T05:40:38.100Z,22.50
2018-07-30T05:43:06.465Z,22.70
2018-07-30T05:45:34.716Z,22.80
2018-07-30T05:52:58.902Z,23.10
2018-07-30T05:55:27.815Z,23.10
2018-07-30T06:00:24.116Z,23.40
2018-07-30T06:02:53.513Z,23.40
2018-07-30T06:05:21.807Z,23.50
2018-07-30T06:07:49.989Z,23.70
2018-07-30T06:10:18.180Z,23.80
2018-07-30T06:12:46.374Z,23.80
2018-07-30T06:17:42.591Z,24.20
2018-07-30T06:20:11.441Z,24.20
2018-07-30T06:22:40.021Z,24.40
2018-07-30T06:25:09.004Z,24.50
2018-07-30T06:27:37.239Z,24.70
2018-07-30T06:30:06.775Z,24.90
2018-07-30T06:32:34.907Z,25.20
2018-07-30T06:35:03.201Z,25.40
2018-07-30T06:37:31.360Z,25.60
2018-07-30T06:39:59.612Z,25.90
2018-07-30T06:42:27.726Z,26.10
2018-07-30T06:47:23.843Z,26.30
2018-07-30T06:49:52.032Z,26.50
2018-07-30T06:52:20.238Z,26.70
2018-07-30T06:54:48.317Z,26.90
2018-07-30T06:57:16.668Z,27.10
2018-07-30T06:59:44.812Z,27.10
2018-07-30T07:02:12.961Z,27.10
2018-07-30T07:04:41.165Z,27.10
2018-07-30T07:07:10.200Z,27.20
2018-07-30T07:09:38.333Z,27.20
2018-07-30T07:12:06.444Z,27.40
2018-07-30T07:14:34.767Z,27.50
2018-07-30T07:17:03.114Z,27.60
2018-07-30T07:19:31.211Z,27.60
2018-07-30T07:21:59.316Z,27.70
2018-07-30T07:24:27.570Z,28.00
2018-07-30T07:26:55.751Z,28.10
2018-07-30T07:29:24.663Z,28.20
2018-07-30T07:31:52.959Z,28.40
2018-07-30T07:34:21.130Z,28.60
2018-07-30T07:36:49.404Z,28.80
2018-07-30T07:39:17.575Z,28.80
2018-07-30T07:41:45.733Z,29.00
2018-07-30T07:44:14.048Z,29.20
2018-07-30T07:49:10.192Z,29.60
2018-07-30T07:51:38.365Z,29.60
2018-07-30T07:54:06.474Z,30.00
2018-07-30T07:56:34.611Z,30.10
2018-07-30T08:01:30.699Z,30.40
2018-07-30T08:03:58.930Z,30.20
2018-07-30T08:06:27.034Z,30.10
2018-07-30T08:08:55.160Z,30.00
2018-07-30T08:11:23.293Z,29.90
2018-07-30T08:13:51.405Z,29.80
2018-07-30T08:16:19.519Z,29.80
2018-07-30T08:18:47.650Z,29.90
2018-07-30T08:21:15.752Z,30.00
2018-07-30T08:23:43.981Z,30.10
2018-07-30T08:26:12.135Z,30.50
2018-07-30T08:28:40.299Z,30.70
2018-07-30T08:31:08.555Z,30.60
2018-07-30T08:33:36.861Z,30.90
2018-07-30T08:36:05.247Z,30.90
2018-07-30T08:38:33.412Z,30.70
2018-07-30T08:41:01.604Z,31.00
2018-07-30T08:43:29.818Z,31.30
2018-07-30T08:48:25.863Z,31.70
2018-07-30T08:50:54.138Z,31.50
2018-07-30T08:53:22.352Z,31.50
2018-07-30T08:55:50.530Z,31.70
2018-07-30T08:58:19.274Z,32.20
2018-07-30T09:00:47.446Z,32.20
2018-07-30T09:03:15.757Z,32.00
2018-07-30T09:05:43.880Z,32.20
2018-07-30T09:08:12.039Z,32.30
2018-07-30T09:10:40.194Z,32.60
2018-07-30T09:13:08.322Z,33.00
2018-07-30T09:15:36.558Z,33.10
2018-07-30T09:18:04.871Z,33.20
2018-07-30T09:20:32.993Z,33.60
2018-07-30T09:23:01.368Z,34.20
2018-07-30T09:25:29.543Z,34.40
2018-07-30T09:27:57.753Z,34.90
2018-07-30T09:30:25.900Z,35.10
2018-07-30T09:32:54.224Z,35.20
2018-07-30T09:35:22.362Z,35.60
2018-07-30T09:37:50.589Z,34.80
2018-07-30T09:40:18.747Z,35.10
2018-07-30T09:42:46.974Z,36.00
2018-07-30T09:45:15.120Z,36.40
2018-07-30T09:47:43.206Z,35.70
2018-07-30T09:50:11.456Z,36.30
2018-07-30T09:52:39.645Z,36.30
2018-07-30T09:55:07.888Z,36.30
2018-07-30T09:57:36.033Z,36.60
2018-07-30T10:00:04.779Z,37.20
2018-07-30T10:02:32.975Z,37.40
2018-07-30T10:05:01.109Z,37.40
2018-07-30T10:07:30.329Z,37.40
2018-07-30T10:09:58.546Z,37.60
2018-07-30T10:12:26.733Z,37.50
2018-07-30T10:14:54.930Z,37.10
2018-07-30T10:17:23.109Z,37.40
2018-07-30T10:19:51.258Z,38.00
2018-07-30T10:22:19.415Z,37.60
2018-07-30T10:24:47.607Z,37.30
2018-07-30T10:27:15.805Z,35.80
2018-07-30T10:29:43.935Z,35.10
2018-07-30T10:32:12.138Z,35.70
2018-07-30T10:34:40.342Z,36.10
2018-07-30T10:37:08.518Z,35.80
2018-07-30T10:39:36.711Z,34.70
2018-07-30T10:42:04.972Z,33.80
2018-07-30T10:47:01.045Z,32.90
2018-07-30T10:49:29.366Z,32.60
2018-07-30T10:51:57.536Z,32.40
2018-07-30T10:54:25.750Z,31.90
2018-07-30T10:56:54.780Z,31.50
2018-07-30T10:59:23.031Z,31.30
2018-07-30T11:01:51.178Z,31.00
2018-07-30T11:04:19.624Z,30.70
2018-07-30T11:06:47.787Z,30.40
2018-07-30T11:09:16.112Z,30.00
2018-07-30T11:11:44.390Z,30.00
2018-07-30T11:14:12.527Z,29.30
2018-07-30T11:16:40.637Z,28.90
